createdAt,value
2018-12-01T00:01:43.827Z,25.23
2018-12-01T00:04:13.507Z,23.00
2018-12-01T00:06:43.776Z,23.95
2018-12-01T00:09:13.502Z,25.65
2018-12-01T00:11:43.336Z,21.77
2018-12-01T00:14:12.981Z,21.42
2018-12-01T00:16:42.722Z,22.45
2018-12-01T00:19:12.426Z,24.50
2018-12-01T00:21:42.052Z,22.32
2018-12-01T00:24:11.819Z,26.85
2018-12-01T00:26:41.471Z,23.62
2018-12-01T00:29:11.436Z,25.88
2018-12-01T00:31:41.134Z,30.35
2018-12-01T00:34:10.810Z,33.75
2018-12-01T00:36:40.416Z,25.60
2018-12-01T00:39:10.144Z,24.27
2018-12-01T00:41:40.093Z,28.57
2018-12-01T00:44:09.803Z,28.07
2018-12-01T00:46:39.642Z,22.37
2018-12-01T00:49:09.398Z,29.75
2018-12-01T00:51:38.987Z,26.00
2018-12-01T00:54:08.813Z,22.27
2018-12-01T00:56:38.703Z,21.65
2018-12-01T00:59:08.369Z,25.57
2018-12-01T01:01:37.994Z,21.40
2018-12-01T01:04:07.901Z,20.08
2018-12-01T01:06:37.517Z,21.60
2018-12-01T01:09:08.242Z,24.25
2018-12-01T01:11:37.929Z,23.40
2018-12-01T01:14:07.706Z,22.05
2018-12-01T01:16:37.508Z,22.85
2018-12-01T01:19:07.170Z,18.73
2018-12-01T01:21:36.866Z,21.48
2018-12-01T01:24:07.050Z,22.60
2018-12-01T01:26:37.659Z,23.62
2018-12-01T01:29:07.978Z,22.20
2018-12-01T01:31:38.074Z,22.70
2018-12-01T01:34:07.818Z,32.40
2018-12-01T01:36:37.597Z,24.95
2018-12-01T01:39:08.661Z,25.90
2018-12-01T01:41:38.719Z,25.02
2018-12-01T01:44:08.246Z,24.57
2018-12-01T01:46:38.662Z,26.07
2018-12-01T01:49:09.131Z,22.87
2018-12-01T01:51:39.461Z,24.77
2018-12-01T01:54:09.538Z,21.30
2018-12-01T01:56:39.708Z,23.07
2018-12-01T01:59:09.844Z,23.98
2018-12-01T02:01:40.118Z,24.65
2018-12-01T02:04:10.412Z,22.02
2018-12-01T02:06:40.152Z,23.87
2018-12-01T02:09:09.914Z,23.77
2018-12-01T02:11:39.666Z,21.70
2018-12-01T02:14:09.370Z,22.55
2018-12-01T02:16:39.075Z,21.90
2018-12-01T02:19:08.906Z,27.22
2018-12-01T02:21:38.705Z,24.30
2018-12-01T02:24:10.156Z,20.43
2018-12-01T02:26:39.967Z,18.30
2018-12-01T02:29:09.710Z,21.15
2018-12-01T02:31:39.477Z,23.12
2018-12-01T02:34:09.215Z,22.90
2018-12-01T02:36:39.045Z,26.15
2018-12-01T02:39:10.759Z,20.15
2018-12-01T02:41:40.433Z,24.98
2018-12-01T02:44:21.159Z,22.27
2018-12-01T02:47:02.628Z,19.42
2018-12-01T02:49:32.364Z,18.05
2018-12-01T02:52:02.114Z,19.65
2018-12-01T02:54:31.858Z,18.30
2018-12-01T02:57:01.578Z,19.40
2018-12-01T02:59:31.365Z,20.37
2018-12-01T03:02:01.522Z,21.93
2018-12-01T03:04:31.449Z,20.60
2018-12-01T03:07:01.568Z,21.70
2018-12-01T03:09:31.986Z,23.22
2018-12-01T03:12:02.498Z,23.55
2018-12-01T03:14:33.485Z,25.05
2018-12-01T03:17:03.659Z,22.05
2018-12-01T03:19:33.863Z,24.98
2018-12-01T03:22:04.245Z,22.07
2018-12-01T03:24:34.366Z,24.75
2018-12-01T03:27:04.429Z,22.67
2018-12-01T03:29:34.272Z,23.47
2018-12-01T03:32:04.053Z,16.95
2018-12-01T03:34:34.175Z,25.97
2018-12-01T03:37:04.577Z,21.97
2018-12-01T03:39:35.089Z,21.60
2018-12-01T03:42:07.465Z,19.87
2018-12-01T03:44:37.772Z,18.80
2018-12-01T03:47:08.019Z,23.22
2018-12-01T03:49:38.555Z,19.17
2018-12-01T03:52:08.657Z,21.25
2018-12-01T03:54:39.164Z,19.05
2018-12-01T03:57:08.940Z,18.17
2018-12-01T03:59:38.686Z,17.75
2018-12-01T04:02:08.765Z,14.80
2018-12-01T04:04:39.234Z,16.20
2018-12-01T04:07:09.605Z,21.82
2018-12-01T04:09:39.699Z,23.80
2018-12-01T04:12:10.323Z,18.55
2018-12-01T04:14:40.669Z,17.48
2018-12-01T04:17:11.212Z,26.00
2018-12-01T04:19:42.153Z,20.97
2018-12-01T04:22:12.473Z,34.45
2018-12-01T04:24:42.536Z,54.48
2018-12-01T04:27:12.729Z,192.65
2018-12-01T04:29:42.878Z,226.47
2018-12-01T04:32:13.982Z,73.17
2018-12-01T04:34:44.304Z,30.37
2018-12-01T04:37:14.478Z,29.57
2018-12-01T04:39:44.734Z,22.82
2018-12-01T04:42:14.814Z,30.32
2018-12-01T04:44:45.279Z,29.52
2018-12-01T04:47:15.153Z,23.77
2018-12-01T04:49:45.348Z,30.97
2018-12-01T04:52:15.378Z,30.50
2018-12-01T04:54:45.760Z,37.13
2018-12-01T04:57:15.994Z,31.75
2018-12-01T04:59:47.087Z,35.30
2018-12-01T05:02:17.450Z,39.05
2018-12-01T05:04:47.587Z,37.03
2018-12-01T05:07:17.772Z,46.00
2018-12-01T05:09:47.665Z,25.82
2018-12-01T05:12:17.895Z,40.55
2018-12-01T05:14:47.987Z,34.98
2018-12-01T05:17:17.815Z,36.50
2018-12-01T05:19:47.500Z,34.30
2018-12-01T05:22:17.139Z,34.18
2018-12-01T05:24:47.589Z,32.00
2018-12-01T05:27:17.783Z,33.38
2018-12-01T05:29:47.522Z,38.80
2018-12-01T05:32:17.260Z,33.05
2018-12-01T05:34:46.956Z,33.60
2018-12-01T05:37:16.651Z,32.53
2018-12-01T05:39:46.372Z,28.02
2018-12-01T05:42:16.174Z,35.05
2018-12-01T05:44:45.916Z,39.70
2018-12-01T05:47:15.668Z,37.17
2018-12-01T05:49:45.288Z,34.50
2018-12-01T05:52:15.119Z,33.65
2018-12-01T05:54:44.890Z,30.88
2018-12-01T05:57:14.709Z,27.50
2018-12-01T05:59:44.372Z,25.12
2018-12-01T06:02:14.243Z,24.55
2018-12-01T06:04:43.929Z,22.80
2018-12-01T06:07:14.365Z,26.35
2018-12-01T06:09:44.944Z,26.33
2018-12-01T06:12:15.231Z,29.55
2018-12-01T06:14:45.302Z,26.33
2018-12-01T06:17:15.148Z,27.62
2018-12-01T06:19:44.942Z,28.12
2018-12-01T06:22:15.076Z,34.75
2018-12-01T06:24:45.403Z,39.95
2018-12-01T06:27:15.348Z,36.08
2018-12-01T06:29:45.462Z,34.10
2018-12-01T06:32:16.119Z,29.45
2018-12-01T06:34:46.003Z,32.53
2018-12-01T06:37:16.746Z,37.70
2018-12-01T06:39:46.610Z,34.92
2018-12-01T06:42:16.487Z,31.33
2018-12-01T06:44:46.262Z,32.67
2018-12-01T06:47:16.071Z,28.95
2018-12-01T06:49:45.905Z,34.40
2018-12-01T06:52:16.140Z,33.38
2018-12-01T06:54:46.590Z,36.23
2018-12-01T06:57:17.187Z,47.67
2018-12-01T06:59:47.279Z,44.25
2018-12-01T07:02:17.702Z,42.53
2018-12-01T07:04:47.445Z,27.02
2018-12-01T07:07:17.814Z,21.80
2018-12-01T07:09:47.596Z,18.10
2018-12-01T07:12:17.239Z,13.93
2018-12-01T07:14:47.137Z,20.27
2018-12-01T07:17:17.033Z,21.30
2018-12-01T07:19:46.868Z,20.70
2018-12-01T07:22:16.691Z,16.93
2018-12-01T07:24:46.539Z,16.17
2018-12-01T07:27:16.282Z,17.12
2018-12-01T07:29:46.400Z,16.60
2018-12-01T07:32:16.528Z,15.93
2018-12-01T07:34:46.883Z,17.50
2018-12-01T07:37:17.117Z,23.85
2018-12-01T07:39:49.779Z,23.35
2018-12-01T07:42:20.250Z,17.87
2018-12-01T07:44:49.972Z,18.10
2018-12-01T07:48:22.845Z,15.75
2018-12-01T07:50:52.572Z,13.95
2018-12-01T07:53:22.717Z,18.65
2018-12-01T07:55:52.457Z,21.62
2018-12-01T07:58:22.231Z,22.65
2018-12-01T08:00:52.017Z,18.87
2018-12-01T08:03:22.220Z,20.62
2018-12-01T08:05:52.257Z,18.32
2018-12-01T08:08:22.013Z,23.25
2018-12-01T08:10:52.141Z,20.82
2018-12-01T08:13:21.946Z,18.73
2018-12-01T08:15:51.729Z,14.07
2018-12-01T08:18:21.493Z,24.55
2018-12-01T08:20:51.357Z,18.60
2018-12-01T08:23:21.298Z,21.60
2018-12-01T08:25:51.117Z,21.23
2018-12-01T08:28:23.194Z,25.97
2018-12-01T08:30:53.998Z,17.82
2018-12-01T08:33:23.870Z,18.77
2018-12-01T08:35:53.587Z,21.65
2018-12-01T08:38:23.401Z,19.82
2018-12-01T08:40:53.170Z,26.50
2018-12-01T08:43:23.101Z,18.17
2018-12-01T08:45:52.940Z,17.15
2018-12-01T08:48:22.885Z,22.52
2018-12-01T08:50:56.700Z,21.80
2018-12-01T08:53:26.835Z,18.00
2018-12-01T08:55:56.689Z,26.65
2018-12-01T08:58:26.512Z,20.52
2018-12-01T09:00:56.499Z,22.50
2018-12-01T09:03:26.227Z,23.65
2018-12-01T09:05:56.674Z,24.92
2018-12-01T09:08:26.510Z,15.60
2018-12-01T09:10:56.202Z,18.42
2018-12-01T09:13:26.908Z,23.98
2018-12-01T09:15:57.707Z,15.70
2018-12-01T09:18:27.494Z,16.48
2018-12-01T09:20:57.238Z,18.98
2018-12-01T09:23:27.483Z,28.45
2018-12-01T09:25:57.293Z,23.90
2018-12-01T09:28:26.879Z,20.65
2018-12-01T09:30:56.720Z,22.22
2018-12-01T09:33:26.458Z,23.00
2018-12-01T09:35:56.244Z,24.47
2018-12-01T09:38:26.027Z,24.40
2018-12-01T09:40:55.863Z,22.45
2018-12-01T09:43:25.692Z,21.20
2018-12-01T09:45:55.497Z,23.27
2018-12-01T09:48:26.049Z,27.45
2018-12-01T09:50:58.197Z,25.25
2018-12-01T09:53:28.542Z,29.48
2018-12-01T09:55:58.572Z,14.45
2018-12-01T10:03:19.067Z,7.72
2018-12-01T10:05:48.946Z,7.22
2018-12-01T10:08:18.692Z,9.63
2018-12-01T10:10:48.507Z,10.63
2018-12-01T10:13:18.395Z,12.90
2018-12-01T10:15:48.581Z,16.97
2018-12-01T10:18:19.856Z,21.45
2018-12-01T10:20:51.512Z,14.73
2018-12-01T10:23:30.166Z,20.72
2018-12-01T10:26:02.634Z,19.17
2018-12-01T10:28:33.909Z,18.77
2018-12-01T10:31:06.559Z,20.23
2018-12-01T10:33:37.995Z,20.62
2018-12-01T10:36:09.854Z,23.12
2018-12-01T10:38:41.189Z,18.70
2018-12-01T10:41:12.680Z,20.43
2018-12-01T10:43:44.794Z,18.52
2018-12-01T10:46:17.511Z,19.37
2018-12-01T10:48:49.023Z,20.75
2018-12-01T10:51:20.615Z,20.27
2018-12-01T11:31:58.640Z,18.45
2018-12-01T11:34:28.342Z,22.55
2018-12-01T11:36:59.652Z,14.15
2018-12-01T11:39:29.330Z,17.92
2018-12-01T11:41:59.071Z,13.00
2018-12-01T11:44:29.014Z,18.10
2018-12-01T11:46:58.834Z,12.60
2018-12-01T11:49:28.885Z,11.93
2018-12-01T11:51:58.583Z,13.95
2018-12-01T11:54:28.417Z,12.15
2018-12-01T11:56:58.498Z,9.25
2018-12-01T11:59:28.338Z,11.78
2018-12-01T12:02:00.491Z,10.28
2018-12-01T12:04:28.355Z,8.25
2018-12-01T12:06:58.235Z,8.85
2018-12-01T12:09:27.930Z,11.10
2018-12-01T12:11:57.611Z,8.55
2018-12-01T12:14:27.433Z,11.22
2018-12-01T12:16:57.268Z,10.65
2018-12-01T12:19:27.247Z,12.63
2018-12-01T12:21:57.250Z,10.95
2018-12-01T12:24:27.214Z,11.45
2018-12-01T12:26:56.986Z,9.60
2018-12-01T12:29:26.809Z,10.43
2018-12-01T12:32:00.667Z,9.53
2018-12-01T12:34:30.494Z,12.25
2018-12-01T12:37:00.267Z,8.83
2018-12-01T12:39:29.937Z,10.08
2018-12-01T12:41:59.619Z,9.53
2018-12-01T12:44:29.470Z,11.78
2018-12-01T12:46:59.338Z,10.10
2018-12-01T12:49:29.268Z,13.08
2018-12-01T12:51:59.091Z,7.72
2018-12-01T12:54:29.237Z,9.13
2018-12-01T12:56:59.258Z,10.20
2018-12-01T12:59:29.037Z,9.00
2018-12-01T13:01:58.756Z,8.20
2018-12-01T13:04:28.522Z,11.97
2018-12-01T13:06:58.220Z,9.48
2018-12-01T13:09:28.011Z,10.80
2018-12-01T13:11:57.801Z,13.53
2018-12-01T13:14:27.473Z,9.05
2018-12-01T13:16:57.306Z,12.43
2018-12-01T13:19:27.006Z,12.58
2018-12-01T13:23:26.732Z,9.95
2018-12-01T13:25:56.375Z,11.33
2018-12-01T13:28:26.569Z,14.90
2018-12-01T13:30:59.423Z,12.80
2018-12-01T13:33:30.470Z,12.03
2018-12-01T13:36:00.238Z,10.25
2018-12-01T13:38:30.078Z,17.15
2018-12-01T13:41:00.310Z,33.10
2018-12-01T13:43:30.125Z,16.07
2018-12-01T13:45:59.883Z,15.10
2018-12-01T13:48:29.740Z,15.68
2018-12-01T13:50:59.609Z,13.48
2018-12-01T13:53:30.208Z,10.63
2018-12-01T13:55:59.826Z,11.28
2018-12-01T13:58:29.527Z,9.30
2018-12-01T14:00:59.179Z,14.23
2018-12-01T14:03:28.795Z,20.00
2018-12-01T14:05:58.614Z,15.35
2018-12-01T14:08:28.334Z,11.88
2018-12-01T14:10:58.087Z,18.32
2018-12-01T14:13:33.708Z,22.17
2018-12-01T14:16:03.733Z,22.98
2018-12-01T14:18:33.477Z,38.13
2018-12-01T14:21:03.251Z,18.27
2018-12-01T14:23:33.278Z,26.02
2018-12-01T14:26:03.106Z,39.50
2018-12-01T14:28:32.906Z,40.92
2018-12-01T14:31:02.659Z,53.00
2018-12-01T14:33:32.949Z,36.70
2018-12-01T14:36:03.006Z,48.02
2018-12-01T14:38:32.751Z,56.58
2018-12-01T14:41:02.564Z,46.20
2018-12-01T14:43:32.290Z,53.10
2018-12-01T14:46:02.011Z,66.10
2018-12-01T14:48:31.751Z,65.65
2018-12-01T14:51:01.660Z,66.60
2018-12-01T14:53:31.525Z,96.75
2018-12-01T14:56:01.290Z,69.37
2018-12-01T14:58:31.188Z,72.78
2018-12-01T15:01:00.849Z,61.63
2018-12-01T15:03:30.925Z,65.35
2018-12-01T15:06:00.594Z,46.25
2018-12-01T15:08:30.383Z,63.90
2018-12-01T15:11:00.603Z,62.20
2018-12-01T15:13:30.328Z,62.70
2018-12-01T15:16:00.003Z,64.00
2018-12-01T15:18:29.674Z,74.22
2018-12-01T15:20:59.480Z,98.30
2018-12-01T15:23:30.087Z,99.52
2018-12-01T15:26:00.735Z,81.67
2018-12-01T15:28:31.056Z,81.65
2018-12-01T15:31:00.889Z,65.72
2018-12-01T15:33:30.474Z,91.75
2018-12-01T15:36:00.156Z,72.17
2018-12-01T15:38:29.939Z,94.17
2018-12-01T15:40:59.762Z,91.22
2018-12-01T15:43:29.502Z,98.37
2018-12-01T15:45:59.446Z,56.50
2018-12-01T15:48:30.162Z,43.90
2018-12-01T15:51:00.086Z,47.08
2018-12-01T15:53:29.956Z,45.38
2018-12-01T15:55:59.745Z,44.10
2018-12-01T15:58:30.286Z,60.30
2018-12-01T16:01:00.070Z,62.83
2018-12-01T16:03:29.954Z,70.95
2018-12-01T16:05:59.906Z,65.03
2018-12-01T16:08:29.940Z,61.42
2018-12-01T16:10:59.606Z,51.20
2018-12-01T16:13:29.734Z,49.03
2018-12-01T16:16:10.463Z,50.45
2018-12-01T16:18:40.457Z,56.25
2018-12-01T16:21:10.155Z,61.13
2018-12-01T16:23:40.042Z,63.70
2018-12-01T16:26:09.819Z,59.40
2018-12-01T16:28:39.809Z,60.12
2018-12-01T16:31:09.857Z,61.13
2018-12-01T16:33:39.673Z,55.43
2018-12-01T16:36:09.622Z,46.48
2018-12-01T16:38:39.525Z,44.98
2018-12-01T16:41:28.894Z,55.88
2018-12-01T16:43:59.563Z,59.90
2018-12-01T16:46:33.107Z,64.12
2018-12-01T16:49:03.113Z,57.27
2018-12-01T16:51:32.894Z,47.80
2018-12-01T16:54:03.122Z,59.15
2018-12-01T16:56:34.044Z,49.77
2018-12-01T16:59:04.019Z,54.73
2018-12-01T17:01:34.849Z,95.38
2018-12-01T17:04:04.761Z,128.82
2018-12-01T17:06:34.708Z,103.05
2018-12-01T17:09:05.530Z,78.45
2018-12-01T17:11:35.601Z,81.97
2018-12-01T17:14:05.735Z,101.02
2018-12-01T17:16:36.077Z,82.45
2018-12-01T17:19:06.147Z,77.80
2018-12-01T17:21:36.183Z,77.37
2018-12-01T17:24:06.847Z,92.22
2018-12-01T17:26:36.992Z,100.38
2018-12-01T17:29:07.513Z,78.02
2018-12-01T17:31:37.426Z,84.90
2018-12-01T17:34:08.815Z,62.38
2018-12-01T17:36:38.714Z,67.50
2018-12-01T17:39:10.567Z,57.80
2018-12-01T17:41:40.378Z,63.83
2018-12-01T17:44:11.486Z,75.75
2018-12-01T17:46:41.569Z,66.90
2018-12-01T17:49:11.526Z,63.63
2018-12-01T17:51:41.567Z,87.25
2018-12-01T17:54:13.940Z,75.83
2018-12-01T17:56:46.285Z,67.03
2018-12-01T17:59:16.144Z,74.67
2018-12-01T18:01:46.285Z,84.95
2018-12-01T18:04:16.152Z,79.15
2018-12-01T18:06:45.934Z,74.62
2018-12-01T18:09:29.990Z,95.30
2018-12-01T18:12:00.239Z,87.80
2018-12-01T18:14:29.959Z,91.78
2018-12-01T18:16:59.764Z,79.97
2018-12-01T18:19:29.944Z,91.47
2018-12-01T18:22:00.228Z,100.80
2018-12-01T18:24:31.158Z,100.58
2018-12-01T18:27:00.950Z,101.38
2018-12-01T18:29:31.003Z,96.65
2018-12-01T18:32:01.755Z,80.60
2018-12-01T18:34:31.545Z,93.75
2018-12-01T18:37:01.634Z,169.60
2018-12-01T18:39:31.263Z,131.37
2018-12-01T18:42:00.925Z,202.65
2018-12-01T18:44:30.579Z,109.32
2018-12-01T18:47:00.304Z,98.05
2018-12-01T18:49:29.904Z,94.30
2018-12-01T18:51:59.925Z,109.25
2018-12-01T18:54:30.908Z,121.62
2018-12-01T18:57:01.947Z,84.13
2018-12-01T18:59:30.485Z,94.95
2018-12-01T19:02:00.161Z,82.45
2018-12-01T19:04:30.175Z,72.85
2018-12-01T19:06:59.932Z,76.02
2018-12-01T19:09:29.787Z,92.35
2018-12-01T19:12:06.153Z,102.95
2018-12-01T19:14:35.987Z,94.42
2018-12-01T19:17:06.202Z,90.28
2018-12-01T19:19:36.162Z,81.40
2018-12-01T19:22:06.381Z,61.70
2018-12-01T19:24:36.198Z,66.07
2018-12-01T19:27:06.406Z,83.52
2018-12-01T19:29:36.290Z,71.05
2018-12-01T19:32:06.387Z,78.00
2018-12-01T19:34:36.094Z,79.22
2018-12-01T19:37:05.919Z,72.15
2018-12-01T19:39:36.575Z,57.00
2018-12-01T19:42:06.396Z,62.15
2018-12-01T19:44:36.089Z,60.88
2018-12-01T19:47:06.009Z,65.05
2018-12-01T19:49:35.719Z,64.37
2018-12-01T19:52:05.747Z,69.47
2018-12-01T19:54:35.522Z,78.60
2018-12-01T19:57:05.379Z,87.02
2018-12-01T19:59:36.009Z,64.42
2018-12-01T20:02:06.596Z,46.70
2018-12-01T20:04:36.641Z,46.95
2018-12-01T20:07:07.271Z,54.53
2018-12-01T20:09:38.096Z,68.37
2018-12-01T20:12:09.342Z,58.13
2018-12-01T20:14:39.138Z,65.10
2018-12-01T20:17:10.172Z,60.40
2018-12-01T20:19:40.007Z,74.60
2018-12-01T20:24:41.656Z,79.50
2018-12-01T20:27:11.579Z,76.47
2018-12-01T20:29:41.438Z,69.35
2018-12-01T20:32:13.229Z,63.75
2018-12-01T20:34:43.094Z,53.60
2018-12-01T20:37:17.793Z,64.12
2018-12-01T20:39:47.660Z,55.52
2018-12-01T20:42:17.373Z,44.75
2018-12-01T20:44:47.371Z,42.38
2018-12-01T20:47:17.990Z,45.92
2018-12-01T20:49:47.684Z,53.30
2018-12-01T20:52:17.500Z,55.33
2018-12-01T20:54:47.937Z,50.08
2018-12-01T20:57:20.559Z,55.30
2018-12-01T20:59:50.272Z,44.65
2018-12-01T21:02:20.232Z,46.30
2018-12-01T21:04:52.231Z,57.58
2018-12-01T21:07:22.080Z,53.17
2018-12-01T21:09:51.901Z,55.35
2018-12-01T21:12:21.795Z,52.80
2018-12-01T21:14:51.764Z,47.25
2018-12-01T21:17:22.010Z,45.23
2018-12-01T21:19:55.564Z,47.55
2018-12-01T21:22:25.883Z,46.88
2018-12-01T21:24:57.014Z,46.70
2018-12-01T21:27:27.860Z,49.20
2018-12-01T21:29:57.925Z,46.08
2018-12-01T21:32:27.927Z,41.63
2018-12-01T21:34:57.833Z,46.40
2018-12-01T21:37:27.833Z,42.20
2018-12-01T21:39:57.532Z,46.50
2018-12-01T21:42:29.808Z,50.08
2018-12-01T21:44:59.805Z,48.55
2018-12-01T21:47:29.859Z,46.68
2018-12-01T21:50:07.783Z,41.20
2018-12-01T21:52:37.719Z,33.40
2018-12-01T21:55:09.600Z,32.10
2018-12-01T21:57:39.665Z,27.58
2018-12-01T22:00:31.916Z,29.05
2018-12-01T22:03:12.389Z,37.03
2018-12-01T22:05:44.746Z,58.55
2018-12-01T22:08:16.154Z,63.90
2018-12-01T22:10:49.135Z,61.95
2018-12-01T22:13:20.251Z,52.55
2018-12-01T22:15:50.282Z,51.23
2018-12-01T22:18:20.346Z,37.90
2018-12-01T22:20:50.130Z,31.70
2018-12-01T22:23:20.565Z,37.53
2018-12-01T22:25:52.651Z,51.30
2018-12-01T22:28:23.106Z,37.98
2018-12-01T22:30:57.203Z,36.13
2018-12-01T22:33:28.482Z,41.65
2018-12-01T22:36:01.556Z,40.52
2018-12-01T22:38:33.284Z,56.37
2018-12-01T22:41:04.081Z,54.60
2018-12-01T22:43:34.291Z,45.30
2018-12-01T22:46:04.463Z,49.45
2018-12-01T22:48:34.318Z,37.15
2018-12-01T22:51:04.263Z,38.33
2018-12-01T22:53:34.361Z,40.03
2018-12-01T22:56:04.452Z,52.83
2018-12-01T22:58:34.721Z,75.12
2018-12-01T23:01:04.959Z,133.07
2018-12-01T23:03:38.017Z,133.40
2018-12-01T23:06:08.139Z,100.55
2018-12-01T23:08:38.080Z,85.53
2018-12-01T23:11:16.488Z,66.28
2018-12-01T23:13:48.355Z,42.80
2018-12-01T23:16:18.131Z,48.78
2018-12-01T23:18:48.131Z,50.75
2018-12-01T23:21:20.577Z,58.78
2018-12-01T23:23:48.132Z,58.48
2018-12-01T23:26:18.041Z,62.08
2018-12-01T23:28:48.379Z,58.78
2018-12-01T23:31:18.122Z,42.55
2018-12-01T23:33:47.881Z,45.60
2018-12-01T23:36:17.758Z,54.83
2018-12-01T23:38:48.321Z,56.20
2018-12-01T23:41:18.106Z,37.75
2018-12-01T23:43:48.123Z,45.75
2018-12-01T23:46:17.928Z,50.63
2018-12-01T23:48:47.880Z,57.33
2018-12-01T23:51:17.657Z,47.80
2018-12-01T23:53:47.406Z,45.98
2018-12-01T23:56:17.472Z,37.95
2018-12-01T23:58:47.367Z,35.00
